createdAt,value
2022-10-06T00:02:24.467Z,98517.84
2022-10-06T00:04:50.921Z,98521.00
2022-10-06T00:07:17.287Z,98527.28
2022-10-06T00:09:43.603Z,98539.22
2022-10-06T00:12:10.135Z,98551.91
2022-10-06T00:14:36.503Z,98554.59
2022-10-06T00:17:02.872Z,98603.59
2022-10-06T00:19:29.275Z,98617.28
2022-10-06T00:21:55.599Z,98619.88
2022-10-06T00:24:21.997Z,98611.78
2022-10-06T00:26:48.333Z,98637.94
2022-10-06T00:29:14.777Z,98643.31
2022-10-06T00:31:41.636Z,98653.94
2022-10-06T00:34:07.955Z,98646.69
2022-10-06T00:36:34.270Z,98659.06
2022-10-06T00:39:00.615Z,98663.66
2022-10-06T00:41:26.946Z,98683.25
2022-10-06T00:43:59.407Z,98685.06
2022-10-06T00:46:32.316Z,98677.88
2022-10-06T00:49:00.114Z,98674.53
2022-10-06T00:51:26.439Z,98686.22
2022-10-06T00:53:53.006Z,98693.31
2022-10-06T00:56:19.332Z,98686.81
2022-10-06T00:58:45.657Z,98692.75
2022-10-06T01:01:12.485Z,98702.97
2022-10-06T01:03:39.701Z,98709.44
2022-10-06T01:06:06.614Z,98701.81
2022-10-06T01:08:32.953Z,98718.97
2022-10-06T01:10:59.312Z,98712.88
2022-10-06T01:13:26.257Z,98713.22
2022-10-06T01:16:13.482Z,98724.81
2022-10-06T01:18:40.346Z,98726.78
2022-10-06T01:21:08.386Z,98713.03
2022-10-06T01:23:34.778Z,98722.28
2022-10-06T01:26:01.440Z,98725.38
2022-10-06T01:28:28.202Z,98730.31
2022-10-06T01:30:55.054Z,98733.28
2022-10-06T01:33:21.454Z,98733.09
2022-10-06T01:35:51.305Z,98749.53
2022-10-06T01:38:17.837Z,98754.69
2022-10-06T01:40:44.583Z,98756.25
2022-10-06T01:43:10.915Z,98749.97
2022-10-06T01:45:37.247Z,98755.44
2022-10-06T01:48:03.659Z,98765.75
2022-10-06T01:50:29.983Z,98753.22
2022-10-06T01:52:57.439Z,98756.66
2022-10-06T01:55:24.231Z,98752.41
2022-10-06T01:57:50.552Z,98767.66
2022-10-06T02:00:16.869Z,98758.03
2022-10-06T02:02:43.493Z,98764.72
2022-10-06T02:05:09.852Z,98772.06
2022-10-06T02:07:36.270Z,98779.53
2022-10-06T02:10:02.674Z,98787.63
2022-10-06T02:12:31.648Z,98777.28
2022-10-06T02:14:58.104Z,98786.78
2022-10-06T02:17:24.422Z,98790.06
2022-10-06T02:19:50.809Z,98801.16
2022-10-06T02:22:17.262Z,98786.66
2022-10-06T02:24:43.576Z,98800.06
2022-10-06T02:27:09.968Z,98797.34
2022-10-06T02:29:36.291Z,98806.22
2022-10-06T02:32:02.746Z,98819.06
2022-10-06T02:34:29.185Z,98827.75
2022-10-06T02:36:55.616Z,98827.41
2022-10-06T02:39:21.954Z,98844.69
2022-10-06T02:41:48.276Z,98852.00
2022-10-06T02:44:15.274Z,98851.53
2022-10-06T02:46:41.842Z,98851.66
2022-10-06T02:49:08.202Z,98853.53
2022-10-06T02:51:34.569Z,98865.38
2022-10-06T02:54:00.927Z,98872.22
2022-10-06T02:56:27.547Z,98885.09
2022-10-06T02:58:54.037Z,98877.66
2022-10-06T03:01:21.310Z,98884.38
2022-10-06T03:03:47.785Z,98886.13
2022-10-06T03:06:23.907Z,98893.47
2022-10-06T03:09:00.502Z,98892.84
2022-10-06T03:11:27.616Z,98888.44
2022-10-06T03:13:54.199Z,98900.75
2022-10-06T03:16:40.785Z,98905.84
2022-10-06T03:19:07.409Z,98901.53
2022-10-06T03:21:35.214Z,98896.91
2022-10-06T03:24:01.630Z,98912.22
2022-10-06T03:26:32.116Z,98905.59
2022-10-06T03:28:58.558Z,98901.22
2022-10-06T03:31:25.442Z,98910.16
2022-10-06T03:33:51.994Z,98907.47
2022-10-06T03:36:19.152Z,98926.38
2022-10-06T03:38:45.461Z,98916.53
2022-10-06T03:41:14.864Z,98922.91
2022-10-06T03:43:42.258Z,98924.84
2022-10-06T03:46:09.614Z,98928.00
2022-10-06T03:48:35.953Z,98936.00
2022-10-06T03:51:06.079Z,98937.03
2022-10-06T03:53:32.761Z,98951.44
2022-10-06T03:56:00.379Z,98939.81
2022-10-06T03:58:29.947Z,98949.19
2022-10-06T04:01:03.682Z,98959.28
2022-10-06T04:03:30.028Z,98965.22
2022-10-06T04:05:56.664Z,98963.81
2022-10-06T04:08:23.747Z,98972.41
2022-10-06T04:10:50.065Z,98972.03
2022-10-06T04:13:17.218Z,98967.28
2022-10-06T04:15:43.940Z,98982.00
2022-10-06T04:18:10.285Z,98986.25
2022-10-06T04:20:36.610Z,98984.56
2022-10-06T04:23:02.917Z,98983.88
2022-10-06T04:25:29.238Z,98987.41
2022-10-06T04:27:57.458Z,98996.72
2022-10-06T04:30:24.287Z,99006.84
2022-10-06T04:32:51.071Z,98992.50
2022-10-06T04:35:17.399Z,99008.97
2022-10-06T04:37:43.824Z,99014.41
2022-10-06T04:40:10.197Z,99006.22
2022-10-06T04:42:37.109Z,99012.69
2022-10-06T04:45:04.430Z,99014.19
2022-10-06T04:47:30.780Z,99016.22
2022-10-06T04:49:57.095Z,99023.88
2022-10-06T04:52:23.418Z,99030.25
2022-10-06T04:54:49.754Z,99025.97
2022-10-06T04:57:16.085Z,99036.94
2022-10-06T05:00:06.174Z,99036.69
2022-10-06T05:02:34.371Z,99035.81
2022-10-06T05:05:00.782Z,99038.47
2022-10-06T05:07:27.172Z,99053.31
2022-10-06T05:09:53.505Z,99057.44
2022-10-06T05:12:19.850Z,99066.66
2022-10-06T05:14:46.948Z,99061.50
2022-10-06T05:17:13.634Z,99067.06
2022-10-06T05:19:39.946Z,99083.41
2022-10-06T05:22:06.297Z,99080.69
2022-10-06T05:24:32.635Z,99087.38
2022-10-06T05:27:02.131Z,99095.66
2022-10-06T05:29:28.621Z,99100.41
2022-10-06T05:31:55.606Z,99103.94
2022-10-06T05:34:22.057Z,99106.50
2022-10-06T05:36:48.451Z,99114.03
2022-10-06T05:39:14.766Z,99116.69
2022-10-06T05:41:41.099Z,99121.13
2022-10-06T05:44:08.640Z,99120.16
2022-10-06T05:46:34.991Z,99130.13
2022-10-06T05:49:03.136Z,99135.34
2022-10-06T05:51:31.139Z,99142.84
2022-10-06T05:53:58.501Z,99148.50
2022-10-06T05:56:25.634Z,99140.72
2022-10-06T05:58:52.442Z,99142.00
2022-10-06T06:01:20.042Z,99153.66
2022-10-06T06:03:47.260Z,99166.38
2022-10-06T06:06:20.749Z,99170.13
2022-10-06T06:08:47.672Z,99165.75
2022-10-06T06:11:14.127Z,99176.53
2022-10-06T06:13:40.499Z,99183.28
2022-10-06T06:16:07.363Z,99189.78
2022-10-06T06:18:34.416Z,99193.03
2022-10-06T06:21:01.635Z,99193.56
2022-10-06T06:23:32.108Z,99198.25
2022-10-06T06:26:02.442Z,99202.25
2022-10-06T06:28:30.058Z,99205.44
2022-10-06T06:31:20.136Z,99218.66
2022-10-06T06:33:47.486Z,99231.31
2022-10-06T06:36:17.161Z,99229.84
2022-10-06T06:38:45.685Z,99230.75
2022-10-06T06:41:15.925Z,99227.31
2022-10-06T06:43:42.485Z,99232.88
2022-10-06T06:46:08.858Z,99235.28
2022-10-06T06:48:38.333Z,99245.03
2022-10-06T06:51:04.974Z,99252.78
2022-10-06T06:53:31.598Z,99256.94
2022-10-06T06:55:58.282Z,99258.00
2022-10-06T06:58:24.601Z,99271.38
2022-10-06T07:00:51.156Z,99268.59
2022-10-06T07:03:28.249Z,99266.72
2022-10-06T07:06:08.802Z,99269.50
2022-10-06T07:08:38.687Z,99273.41
2022-10-06T07:11:17.401Z,99273.66
2022-10-06T07:13:44.026Z,99279.44
2022-10-06T07:16:29.619Z,99287.22
2022-10-06T07:19:14.536Z,99286.84
2022-10-06T07:21:59.601Z,99291.06
2022-10-06T07:24:44.841Z,99297.03
2022-10-06T07:27:11.233Z,99299.19
2022-10-06T07:29:37.595Z,99299.81
2022-10-06T07:32:03.947Z,99308.69
2022-10-06T07:34:30.312Z,99311.41
2022-10-06T07:36:57.147Z,99325.94
2022-10-06T07:39:23.566Z,99322.06
2022-10-06T07:41:49.928Z,99331.78
2022-10-06T07:44:16.289Z,99338.00
2022-10-06T07:46:43.794Z,99341.84
2022-10-06T07:49:10.328Z,99345.88
2022-10-06T07:51:36.743Z,99350.78
2022-10-06T07:54:03.078Z,99346.63
2022-10-06T07:56:30.047Z,99349.44
2022-10-06T07:58:58.541Z,99349.44
2022-10-06T08:01:26.952Z,99359.69
2022-10-06T08:03:54.018Z,99355.53
2022-10-06T08:06:20.418Z,99352.69
2022-10-06T08:08:50.358Z,99360.22
2022-10-06T08:11:18.890Z,99369.75
2022-10-06T08:13:45.334Z,99367.16
2022-10-06T08:16:12.892Z,99383.81
2022-10-06T08:18:46.578Z,99384.09
2022-10-06T08:21:36.600Z,99386.88
2022-10-06T08:24:03.006Z,99405.22
2022-10-06T08:26:30.035Z,99397.88
2022-10-06T08:29:05.870Z,99401.97
2022-10-06T08:31:32.399Z,99403.44
2022-10-06T08:33:58.958Z,99407.13
2022-10-06T08:36:30.846Z,99408.34
2022-10-06T08:38:58.061Z,99418.75
2022-10-06T08:41:30.496Z,99418.53
2022-10-06T08:43:59.148Z,99428.03
2022-10-06T08:46:26.344Z,99431.78
2022-10-06T08:48:52.669Z,99423.28
2022-10-06T08:51:31.155Z,99427.72
2022-10-06T08:54:09.717Z,99433.91
2022-10-06T08:56:36.622Z,99432.84
2022-10-06T08:59:04.364Z,99440.16
2022-10-06T09:01:33.592Z,99438.59
2022-10-06T09:04:03.354Z,99435.13
2022-10-06T09:06:48.647Z,99442.66
2022-10-06T09:09:17.942Z,99447.91
2022-10-06T09:11:44.240Z,99444.53
2022-10-06T09:14:15.432Z,99457.31
2022-10-06T09:16:42.357Z,99448.56
2022-10-06T09:19:09.572Z,99450.63
2022-10-06T09:21:46.575Z,99458.72
2022-10-06T09:24:17.009Z,99469.22
2022-10-06T09:26:52.931Z,99467.56
2022-10-06T09:29:19.667Z,99470.44
2022-10-06T09:31:53.577Z,99472.47
2022-10-06T09:34:42.268Z,99482.34
2022-10-06T09:37:11.740Z,99472.28
2022-10-06T09:39:43.062Z,99476.22
2022-10-06T09:42:16.376Z,99482.28
2022-10-06T09:44:44.715Z,99489.13
2022-10-06T09:47:32.907Z,99493.16
2022-10-06T09:50:17.758Z,99504.16
2022-10-06T09:53:01.646Z,99485.59
2022-10-06T09:55:31.359Z,99496.41
2022-10-06T09:57:58.215Z,99506.06
2022-10-06T10:00:37.687Z,99510.84
2022-10-06T10:03:07.594Z,99506.41
2022-10-06T10:05:35.352Z,99498.75
2022-10-06T10:08:25.568Z,99498.88
2022-10-06T10:11:33.428Z,99505.72
2022-10-06T10:14:00.213Z,99511.47
2022-10-06T10:16:35.963Z,99524.19
2022-10-06T10:19:03.219Z,99525.47
2022-10-06T10:21:31.001Z,99517.25
2022-10-06T10:23:58.052Z,99523.38
2022-10-06T10:26:38.157Z,99529.56
2022-10-06T10:29:32.760Z,99522.06
2022-10-06T10:32:05.891Z,99515.88
2022-10-06T10:34:32.312Z,99525.47
2022-10-06T10:36:59.978Z,99531.41
2022-10-06T10:39:29.067Z,99526.25
2022-10-06T10:41:55.435Z,99525.19
2022-10-06T10:44:29.648Z,99525.38
2022-10-06T10:46:57.166Z,99537.19
2022-10-06T10:49:32.543Z,99534.19
2022-10-06T10:52:04.030Z,99538.72
2022-10-06T10:54:51.850Z,99540.94
2022-10-06T10:57:19.386Z,99537.44
2022-10-06T11:00:05.273Z,99543.94
2022-10-06T11:02:31.693Z,99543.81
2022-10-06T11:05:00.802Z,99541.38
2022-10-06T11:07:47.096Z,99539.84
2022-10-06T11:10:16.513Z,99541.13
2022-10-06T11:12:52.279Z,99540.25
2022-10-06T11:15:21.797Z,99549.66
2022-10-06T11:17:50.515Z,99550.41
2022-10-06T11:20:35.861Z,99547.59
2022-10-06T11:23:02.266Z,99540.00
2022-10-06T11:25:31.253Z,99546.06
2022-10-06T11:28:13.607Z,99550.47
2022-10-06T11:30:50.267Z,99559.72
2022-10-06T11:33:17.856Z,99548.69
2022-10-06T11:35:45.929Z,99554.72
2022-10-06T11:38:33.440Z,99564.09
2022-10-06T11:41:03.368Z,99557.75
2022-10-06T11:43:43.246Z,99550.16
2022-10-06T11:46:13.332Z,99558.34
2022-10-06T11:48:40.708Z,99560.16
2022-10-06T11:51:22.689Z,99559.97
2022-10-06T11:53:49.135Z,99564.97
2022-10-06T11:56:15.698Z,99550.84
2022-10-06T11:58:51.415Z,99546.69
2022-10-06T12:01:36.540Z,99548.19
2022-10-06T12:04:09.189Z,99549.97
2022-10-06T12:06:55.866Z,99543.06
2022-10-06T12:09:29.434Z,99552.00
2022-10-06T12:11:56.771Z,99548.81
2022-10-06T12:17:25.045Z,99547.28
2022-10-06T12:19:54.643Z,99544.44
2022-10-06T12:22:34.735Z,99554.06
2022-10-06T12:25:05.989Z,99549.97
2022-10-06T12:27:35.597Z,99545.44
2022-10-06T12:30:04.101Z,99539.88
2022-10-06T12:32:30.608Z,99549.06
2022-10-06T12:35:15.013Z,99534.78
2022-10-06T12:37:47.983Z,99550.84
2022-10-06T12:40:35.421Z,99551.88
2022-10-06T12:43:23.044Z,99548.00
2022-10-06T12:46:01.442Z,99542.22
2022-10-06T12:48:34.043Z,99541.91
2022-10-06T12:51:06.474Z,99534.16
2022-10-06T12:53:36.492Z,99533.47
2022-10-06T12:56:06.099Z,99536.59
2022-10-06T12:58:33.344Z,99538.22
2022-10-06T13:01:00.204Z,99535.53
2022-10-06T13:03:26.655Z,99532.41
2022-10-06T13:05:53.687Z,99537.56
2022-10-06T13:08:23.289Z,99531.81
2022-10-06T13:10:49.668Z,99534.66
2022-10-06T13:13:24.187Z,99546.63
2022-10-06T13:16:00.690Z,99534.03
2022-10-06T13:18:27.152Z,99540.38
2022-10-06T13:20:53.747Z,99543.84
2022-10-06T13:23:26.977Z,99542.28
2022-10-06T13:25:53.294Z,99535.66
2022-10-06T13:28:29.874Z,99540.81
2022-10-06T13:30:57.360Z,99533.88
2022-10-06T13:33:24.237Z,99536.09
2022-10-06T13:35:52.835Z,99535.50
2022-10-06T13:38:19.724Z,99536.59
2022-10-06T13:40:46.159Z,99534.97
2022-10-06T13:43:16.983Z,99537.50
2022-10-06T13:45:44.525Z,99534.22
2022-10-06T13:48:15.457Z,99529.50
2022-10-06T13:50:48.940Z,99542.94
2022-10-06T13:53:23.537Z,99541.19
2022-10-06T13:55:50.028Z,99542.78
2022-10-06T13:58:17.339Z,99547.28
2022-10-06T14:00:51.448Z,99544.84
2022-10-06T14:03:22.642Z,99539.56
2022-10-06T14:05:49.095Z,99544.06
2022-10-06T14:08:25.026Z,99549.94
2022-10-06T14:10:58.256Z,99545.53
2022-10-06T14:13:48.339Z,99543.19
2022-10-06T14:16:24.432Z,99549.81
2022-10-06T14:21:41.746Z,99550.72
2022-10-06T14:24:18.031Z,99545.13
2022-10-06T14:26:44.467Z,99545.00
2022-10-06T14:29:10.834Z,99542.25
2022-10-06T14:31:37.222Z,99540.03
2022-10-06T14:34:13.895Z,99547.00
2022-10-06T14:36:40.301Z,99548.25
2022-10-06T14:39:06.932Z,99538.16
2022-10-06T14:41:33.341Z,99538.00
2022-10-06T14:44:03.611Z,99535.59
2022-10-06T14:46:30.153Z,99524.09
2022-10-06T14:48:57.143Z,99519.31
2022-10-06T14:51:25.283Z,99527.44
2022-10-06T14:53:55.143Z,99528.63
2022-10-06T14:56:23.018Z,99533.53
2022-10-06T14:58:50.279Z,99532.25
2022-10-06T15:01:17.405Z,99522.13
2022-10-06T15:03:53.370Z,99523.56
2022-10-06T15:06:38.687Z,99527.44
2022-10-06T15:09:05.044Z,99527.91
2022-10-06T15:11:34.543Z,99522.19
2022-10-06T15:14:02.435Z,99528.41
2022-10-06T15:16:29.718Z,99532.31
2022-10-06T15:18:56.504Z,99524.22
2022-10-06T15:21:23.938Z,99521.91
2022-10-06T15:23:56.992Z,99524.50
2022-10-06T15:26:42.241Z,99523.75
2022-10-06T15:29:08.612Z,99529.66
2022-10-06T15:31:38.730Z,99530.72
2022-10-06T15:34:06.184Z,99526.59
2022-10-06T15:36:39.173Z,99527.41
2022-10-06T15:39:06.684Z,99528.31
2022-10-06T15:41:33.841Z,99533.56
2022-10-06T15:44:00.214Z,99530.88
2022-10-06T15:46:30.707Z,99531.97
2022-10-06T15:49:01.141Z,99529.94
2022-10-06T15:51:28.375Z,99528.38
2022-10-06T15:53:55.362Z,99534.13
2022-10-06T15:56:21.725Z,99531.31
2022-10-06T15:58:49.815Z,99526.75
2022-10-06T16:01:25.731Z,99529.88
2022-10-06T16:03:53.332Z,99535.72
2022-10-06T16:06:29.624Z,99527.63
2022-10-06T16:08:55.954Z,99534.31
2022-10-06T16:11:22.288Z,99530.91
2022-10-06T16:13:48.644Z,99528.31
2022-10-06T16:16:15.102Z,99528.31
2022-10-06T16:18:41.506Z,99527.50
2022-10-06T16:21:07.835Z,99532.25
2022-10-06T16:23:34.168Z,99530.44
2022-10-06T16:26:03.820Z,99537.78
2022-10-06T16:28:30.267Z,99530.75
2022-10-06T16:30:56.704Z,99530.75
2022-10-06T16:33:23.141Z,99534.53
2022-10-06T16:35:55.759Z,99529.78
2022-10-06T16:38:22.243Z,99536.28
2022-10-06T16:40:58.274Z,99539.25
2022-10-06T16:43:26.266Z,99535.13
2022-10-06T16:46:02.767Z,99538.88
2022-10-06T16:48:29.550Z,99530.31
2022-10-06T16:51:09.114Z,99533.72
2022-10-06T16:53:36.145Z,99535.22
2022-10-06T16:56:02.682Z,99540.56
2022-10-06T16:58:34.421Z,99544.75
2022-10-06T17:01:00.844Z,99547.03
2022-10-06T17:03:27.389Z,99544.47
2022-10-06T17:05:53.706Z,99543.28
2022-10-06T17:08:23.520Z,99537.88
2022-10-06T17:11:00.598Z,99543.19
2022-10-06T17:13:26.936Z,99539.06
2022-10-06T17:15:59.702Z,99550.72
2022-10-06T17:18:26.194Z,99538.47
2022-10-06T17:20:53.505Z,99540.72
2022-10-06T17:23:19.827Z,99541.53
2022-10-06T17:25:46.149Z,99538.78
2022-10-06T17:28:12.683Z,99542.22
2022-10-06T17:30:39.117Z,99545.03
2022-10-06T17:33:06.194Z,99546.91
2022-10-06T17:35:36.481Z,99545.06
2022-10-06T17:38:04.814Z,99550.22
2022-10-06T17:40:31.125Z,99550.63
2022-10-06T17:42:57.542Z,99542.69
2022-10-06T17:45:24.987Z,99547.50
2022-10-06T17:47:51.759Z,99546.94
2022-10-06T17:50:18.080Z,99544.03
2022-10-06T17:52:44.401Z,99548.25
2022-10-06T17:55:10.767Z,99550.59
2022-10-06T17:57:37.146Z,99548.75
2022-10-06T18:00:04.943Z,99550.78
2022-10-06T18:02:31.397Z,99558.22
2022-10-06T18:04:58.371Z,99553.44
2022-10-06T18:07:25.143Z,99551.03
2022-10-06T18:10:11.489Z,99553.69
2022-10-06T18:12:38.378Z,99547.66
2022-10-06T18:15:05.278Z,99549.28
2022-10-06T18:17:31.659Z,99546.78
2022-10-06T18:19:58.004Z,99555.25
2022-10-06T18:22:25.074Z,99553.69
2022-10-06T18:24:54.127Z,99550.66
2022-10-06T18:27:24.139Z,99544.44
2022-10-06T18:29:50.465Z,99546.66
2022-10-06T18:37:53.136Z,99545.66
2022-10-06T18:40:22.088Z,99540.59
2022-10-06T18:42:48.427Z,99543.69
2022-10-06T18:45:39.123Z,99545.19
2022-10-06T18:48:24.358Z,99538.34
2022-10-06T18:51:00.600Z,99540.22
2022-10-06T18:53:26.940Z,99542.28
2022-10-06T18:55:53.613Z,99541.22
2022-10-06T18:58:20.126Z,99536.94
2022-10-06T19:00:47.613Z,99536.63
2022-10-06T19:03:13.994Z,99540.16
2022-10-06T19:05:40.319Z,99544.06
2022-10-06T19:08:07.989Z,99548.94
2022-10-06T19:10:34.625Z,99546.63
2022-10-06T19:13:01.090Z,99548.47
2022-10-06T19:15:27.431Z,99554.63
2022-10-06T19:17:53.774Z,99547.44
2022-10-06T19:20:20.169Z,99550.59
2022-10-06T19:22:47.697Z,99555.03
2022-10-06T19:25:14.620Z,99559.59
2022-10-06T19:27:44.170Z,99556.31
2022-10-06T19:30:14.415Z,99561.44
2022-10-06T19:32:40.806Z,99549.63
2022-10-06T19:35:10.355Z,99560.06
2022-10-06T19:37:37.224Z,99566.63
2022-10-06T19:40:03.570Z,99561.34
2022-10-06T19:42:48.313Z,99560.50
2022-10-06T19:45:15.956Z,99557.97
2022-10-06T19:47:42.776Z,99563.38
2022-10-06T19:50:12.653Z,99556.94
2022-10-06T19:52:39.652Z,99569.34
2022-10-06T19:55:06.121Z,99559.88
2022-10-06T19:57:33.607Z,99565.38
2022-10-06T20:00:00.156Z,99569.13
2022-10-06T20:02:27.191Z,99568.56
2022-10-06T20:04:53.738Z,99570.91
2022-10-06T20:07:21.839Z,99567.22
2022-10-06T20:09:48.311Z,99565.38
2022-10-06T20:12:15.032Z,99561.78
2022-10-06T20:14:41.367Z,99563.63
2022-10-06T20:17:07.774Z,99559.91
2022-10-06T20:19:35.217Z,99565.56
2022-10-06T20:22:01.538Z,99566.19
2022-10-06T20:24:27.914Z,99562.50
2022-10-06T20:26:54.269Z,99572.22
2022-10-06T20:29:21.570Z,99568.31
2022-10-06T20:31:49.048Z,99567.09
2022-10-06T20:34:16.225Z,99573.44
2022-10-06T20:36:42.647Z,99570.97
2022-10-06T20:39:28.016Z,99570.06
2022-10-06T20:41:55.741Z,99570.59
2022-10-06T20:44:22.139Z,99561.16
2022-10-06T20:46:48.472Z,99564.13
2022-10-06T20:49:17.391Z,99567.22
2022-10-06T20:51:46.823Z,99559.41
2022-10-06T20:54:13.428Z,99557.69
2022-10-06T20:56:41.930Z,99548.34
2022-10-06T20:59:08.268Z,99547.22
2022-10-06T21:01:35.244Z,99547.53
2022-10-06T21:04:01.964Z,99552.25
2022-10-06T21:06:28.485Z,99550.00
2022-10-06T21:08:55.155Z,99541.09
2022-10-06T21:11:22.166Z,99542.22
2022-10-06T21:13:51.958Z,99548.03
2022-10-06T21:16:18.718Z,99542.31
2022-10-06T21:18:47.055Z,99552.38
2022-10-06T21:21:13.962Z,99546.84
2022-10-06T21:23:44.781Z,99540.97
2022-10-06T21:26:12.483Z,99536.69
2022-10-06T21:28:39.616Z,99539.44
2022-10-06T21:31:06.771Z,99541.59
2022-10-06T21:33:41.563Z,99542.59
2022-10-06T21:36:18.127Z,99539.13
2022-10-06T21:38:45.617Z,99536.69
2022-10-06T21:41:27.391Z,99537.59
2022-10-06T21:44:23.263Z,99539.53
2022-10-06T21:46:49.797Z,99536.03
2022-10-06T21:49:17.079Z,99525.94
2022-10-06T21:51:45.730Z,99522.44
2022-10-06T21:54:12.847Z,99520.72
2022-10-06T21:56:39.970Z,99513.63
2022-10-06T21:59:06.584Z,99514.97
2022-10-06T22:01:33.838Z,99522.13
2022-10-06T22:04:00.432Z,99513.94
2022-10-06T22:06:27.373Z,99504.22
2022-10-06T22:08:53.901Z,99514.97
2022-10-06T22:11:21.111Z,99517.81
2022-10-06T22:13:48.390Z,99515.06
2022-10-06T22:16:15.814Z,99520.41
2022-10-06T22:18:42.463Z,99513.41
2022-10-06T22:21:15.968Z,99515.06
2022-10-06T22:23:42.723Z,99511.38
2022-10-06T22:26:09.417Z,99511.88
2022-10-06T22:28:36.029Z,99516.41
2022-10-06T22:31:03.442Z,99514.44
2022-10-06T22:33:30.040Z,99507.78
2022-10-06T22:35:56.541Z,99509.13
2022-10-06T22:38:23.001Z,99513.53
2022-10-06T22:40:49.460Z,99504.72
2022-10-06T22:43:15.986Z,99503.50
2022-10-06T22:45:42.449Z,99500.00
2022-10-06T22:48:08.928Z,99497.25
2022-10-06T22:50:35.382Z,99496.94
2022-10-06T22:53:01.850Z,99484.34
2022-10-06T22:55:28.310Z,99483.91
2022-10-06T22:57:55.116Z,99484.88
2022-10-06T23:00:21.639Z,99481.56
2022-10-06T23:02:48.212Z,99476.66
2022-10-06T23:05:14.746Z,99470.00
2022-10-06T23:07:41.682Z,99471.94
2022-10-06T23:10:08.504Z,99468.78
2022-10-06T23:12:35.011Z,99469.50
2022-10-06T23:15:01.475Z,99467.25
2022-10-06T23:17:27.961Z,99464.91
2022-10-06T23:19:54.418Z,99464.09
2022-10-06T23:22:20.884Z,99465.81
2022-10-06T23:24:47.448Z,99461.00
2022-10-06T23:27:14.433Z,99465.81
2022-10-06T23:29:41.066Z,99453.84
2022-10-06T23:32:07.605Z,99456.50
2022-10-06T23:34:34.125Z,99450.97
2022-10-06T23:37:00.598Z,99449.13
2022-10-06T23:39:28.081Z,99443.50
2022-10-06T23:41:54.583Z,99446.38
2022-10-06T23:44:21.046Z,99444.53
2022-10-06T23:46:47.542Z,99434.50
2022-10-06T23:49:14.123Z,99440.66
2022-10-06T23:51:40.594Z,99441.84
2022-10-06T23:54:08.481Z,99443.81
2022-10-06T23:56:35.102Z,99447.28
2022-10-06T23:59:01.583Z,99437.38
